Latest Weather Observations for Hervey Bay

IDQ60801

Issued at 10:05 am EST Sunday 23 November 2014 (issued every 30 minutes, with the page automatically refreshed every 10 minutes)

About weather observations | Map of weather stations | Latest weather observations for QLD | Other Formats
Station Details ID: 040405 Name: HERVEY BAY AIRPORT Lat: -25.32 Lon: 152.88 Height: 12.98 m
Data from the previous 72 hours. | See also: Recent months at Hervey Bay
Date/Time
EST
Temp
°C
App
Temp
°C
Dew
Point
Rel
Hum
%
Delta-T
°C
Wind Press
QNH
hPa
Press
MSL
hPa
Rain
since 9 am
mm
Dir
 
Spd
km/h
Gust
km/h
Spd
kts
Gust
kts
23/10:00am 28.8 28.0 16.0 45 7.9 N 15 24 8 13 1018.3 1018.2 0.0
23/09:30am 28.2 26.8 15.5 46 7.8 N 17 24 9 13 1018.5 1018.4 0.0
23/09:00am 28.1 27.8 17.3 52 6.8 N 15 24 8 13 1018.6 1018.5 0.0
23/08:30am 27.8 27.7 17.9 54 6.3 N 15 20 8 11 1018.5 1018.4 0.0
23/08:00am 27.8 28.0 18.5 57 5.9 NNE 15 22 8 12 1018.4 1018.3 0.0
23/07:30am 27.1 26.7 18.1 58 5.7 NNE 17 26 9 14 1018.3 1018.2 0.0
23/07:00am 26.5 26.1 18.1 60 5.3 N 17 24 9 13 1018.1 1018.0 0.0
23/06:30am 26.2 25.6 17.6 59 5.4 NNE 17 24 9 13 1017.6 1017.5 0.0
23/06:00am 25.6 25.0 18.5 65 4.5 NNE 19 26 10 14 1017.1 1017.0 0.0
23/05:30am 25.3 24.8 18.7 67 4.2 NNE 19 24 10 13 1016.7 1016.6 0.0
23/05:00am 24.6 24.3 19.2 72 3.5 NNE 19 24 10 13 1016.2 1016.1 0.0
23/04:30am 24.6 24.8 19.4 73 3.3 NNE 17 24 9 13 1015.9 1015.8 0.0
23/04:00am 24.8 25.2 19.8 74 3.2 NNE 17 22 9 12 1015.7 1015.6 0.0
23/03:30am 24.6 25.0 19.9 75 3.0 NNE 17 24 9 13 1015.4 1015.3 0.0
23/03:00am 24.7 24.9 20.2 76 2.9 NNE 19 26 10 14 1015.2 1015.1 0.0
23/02:30am 24.8 25.4 20.3 76 2.9 NNE 17 24 9 13 1015.3 1015.2 0.0
23/02:00am 24.9 25.3 19.9 74 3.2 NNE 17 24 9 13 1015.3 1015.2 0.0
23/01:30am 24.7 25.2 20.0 75 3.0 NNE 17 22 9 12 1015.7 1015.6 0.0
23/01:00am 24.7 25.2 20.0 75 3.0 NNE 17 24 9 13 1015.9 1015.8 0.0
23/12:30am 25.0 25.7 20.5 76 2.9 NNE 17 22 9 12 1016.0 1015.9 0.0
23/12:00am 25.1 25.5 20.6 76 2.9 NNE 19 26 10 14 1016.3 1016.2 0.0
 
Date/Time
EST
Temp
°C
App
Temp
°C
Dew
Point
Rel
Hum
%
Delta-T
°C
Wind Press
QNH
hPa
Press
MSL
hPa
Rain
since 9 am
mm
Dir
 
Spd
km/h
Gust
km/h
Spd
kts
Gust
kts
22/11:30pm 25.1 26.4 20.8 77 2.8 N 15 22 8 12 1016.4 1016.3 0.0
22/11:00pm 25.0 26.0 20.3 75 3.1 N 15 20 8 11 1016.6 1016.5 0.0
22/10:30pm 25.2 25.8 20.2 74 3.3 NNE 17 26 9 14 1016.7 1016.6 0.0
22/10:00pm 25.2 26.1 20.9 77 2.8 NNE 17 24 9 13 1016.5 1016.4 0.0
22/09:30pm 25.2 26.7 21.3 79 2.6 N 15 22 8 12 1016.4 1016.3 0.0
22/09:00pm 25.2 26.6 21.1 78 2.7 N 15 20 8 11 1016.3 1016.2 0.0
22/08:30pm 25.3 26.3 21.0 77 2.8 N 17 22 9 12 1016.0 1015.9 0.0
22/08:00pm 25.3 25.9 21.0 77 2.8 N 19 26 10 14 1015.5 1015.4 0.0
22/07:30pm 25.3 26.7 21.0 77 2.8 N 15 24 8 13 1014.9 1014.8 0.0
22/07:00pm 25.4 26.4 21.1 77 2.8 N 17 26 9 14 1014.7 1014.6 0.0
22/06:30pm 25.5 26.5 21.0 76 3.0 N 17 26 9 14 1014.2 1014.1 0.0
22/06:00pm 25.8 26.4 21.0 75 3.2 N 19 28 10 15 1013.8 1013.7 0.0
22/05:30pm 26.3 26.5 21.3 74 3.3 N 22 33 12 18 1013.6 1013.5 0.0
22/05:00pm 26.8 26.5 21.1 71 3.8 N 24 32 13 17 1013.2 1013.1 0.0
22/04:30pm 27.4 27.4 21.7 71 3.8 N 24 35 13 19 1013.2 1013.1 0.0
22/04:00pm 28.2 28.1 21.5 67 4.5 N 24 35 13 19 1013.3 1013.2 0.0
22/03:30pm 28.6 29.6 22.1 68 4.4 N 20 32 11 17 1013.3 1013.2 0.0
22/03:00pm 28.8 28.8 21.6 65 4.8 N 24 35 13 19 1013.6 1013.5 0.0
22/02:30pm 28.3 27.3 21.3 65 4.7 N 28 37 15 20 1013.8 1013.7 0.0
22/02:00pm 29.0 29.0 21.7 64 4.9 N 24 35 13 19 1014.1 1014.0 0.0
22/01:30pm 28.7 28.6 21.5 65 4.8 N 24 35 13 19 1014.4 1014.3 0.0
22/01:00pm 29.1 29.2 21.8 64 4.9 N 24 35 13 19 1014.8 1014.7 0.0
22/12:30pm 28.8 28.4 21.6 65 4.8 N 26 35 14 19 1015.1 1015.0 0.0
22/12:00pm 28.5 28.3 21.3 65 4.8 N 24 33 13 18 1015.6 1015.5 0.0
22/11:30am 28.2 27.8 21.7 68 4.4 NNE 26 33 14 18 1015.8 1015.7 0.0
22/11:00am 28.0 28.1 21.8 69 4.2 N 24 33 13 18 1016.2 1016.1 0.0
22/10:30am 28.1 28.7 22.1 70 4.0 N 22 32 12 17 1016.4 1016.3 0.0
22/10:00am 27.3 27.3 21.6 71 3.8 N 24 35 13 19 1016.6 1016.5 0.0
22/09:30am 27.6 27.2 21.6 70 4.0 N 26 41 14 22 1016.5 1016.4 0.0
22/09:00am 27.3 27.3 21.6 71 3.8 N 24 33 13 18 1016.5 1016.4 0.0
22/08:30am 27.3 27.7 21.8 72 3.7 N 22 33 12 18 1016.5 1016.4 0.0
22/08:00am 27.6 28.7 22.3 73 3.6 N 20 28 11 15 1016.5 1016.4 0.0
22/07:30am 26.8 27.7 22.0 75 3.2 N 20 30 11 16 1016.5 1016.4 0.0
22/07:00am 26.8 27.3 22.0 75 3.2 N 22 32 12 17 1016.3 1016.2 0.0
22/06:30am 25.8 26.3 21.9 79 2.6 N 22 30 12 16 1015.9 1015.8 0.0
22/06:00am 25.7 26.5 21.8 79 2.6 N 20 30 11 16 1015.5 1015.4 0.0
22/05:30am 25.4 27.0 22.1 82 2.2 N 17 24 9 13 1015.1 1015.0 0.0
22/05:00am 25.1 26.1 21.8 82 2.2 N 19 26 10 14 1014.8 1014.7 0.0
22/04:30am 25.0 26.9 22.1 84 1.9 N 15 24 8 13 1014.2 1014.1 0.0
22/04:00am 25.1 27.0 22.0 83 2.1 N 15 24 8 13 1014.1 1014.0 0.0
22/03:30am 25.1 26.2 22.0 83 2.1 N 19 28 10 15 1013.7 1013.6 0.0
22/03:00am 25.2 25.6 21.7 81 2.3 N 22 32 12 17 1013.5 1013.4 0.0
22/02:30am 25.3 26.3 21.8 81 2.3 N 19 28 10 15 1013.5 1013.4 0.0
22/02:00am 25.2 26.1 21.9 82 2.2 N 20 32 11 17 1013.4 1013.3 0.0
22/01:30am 25.1 26.2 22.0 83 2.1 N 19 26 10 14 1013.3 1013.2 0.0
22/01:00am 25.3 26.2 22.0 82 2.2 N 20 30 11 16 1013.7 1013.6 0.0
22/12:30am 25.3 26.1 21.8 81 2.3 N 20 30 11 16 1014.0 1013.9 0.0
22/12:27am 25.3 26.1 21.8 81 2.3 N 20 30 11 16 1014.0 1013.9 0.0
22/12:16am 25.3 26.2 22.0 82 2.2 N 20 30 11 16 1014.2 1014.1 0.0
22/12:00am 25.4 26.4 22.1 82 2.2 N 20 28 11 15 1014.4 1014.3 0.0
 
Date/Time
EST
Temp
°C
App
Temp
°C
Dew
Point
Rel
Hum
%
Delta-T
°C
Wind Press
QNH
hPa
Press
MSL
hPa
Rain
since 9 am
mm
Dir
 
Spd
km/h
Gust
km/h
Spd
kts
Gust
kts
21/11:30pm 25.4 26.3 21.9 81 2.3 N 20 30 11 16 1014.7 1014.6 0.0
21/11:00pm 25.5 26.5 22.2 82 2.2 N 20 32 11 17 1015.0 1014.9 0.0
21/10:30pm 25.5 26.4 22.0 81 2.3 N 20 30 11 16 1015.2 1015.1 0.0
21/10:00pm 25.5 26.0 22.0 81 2.3 N 22 32 12 17 1014.9 1014.8 0.0
21/09:30pm 25.5 25.9 21.8 80 2.5 N 22 33 12 18 1014.7 1014.6 0.0
21/09:00pm 25.4 26.4 22.1 82 2.2 NNE 20 30 11 16 1014.4 1014.3 0.0
21/08:30pm 25.4 26.4 22.1 82 2.2 NNE 20 30 11 16 1014.4 1014.3 0.0
21/08:00pm 25.4 26.3 21.9 81 2.3 N 20 28 11 15 1014.3 1014.2 0.0
21/07:30pm 25.6 26.8 22.1 81 2.3 NNE 19 30 10 16 1014.0 1013.9 0.0
21/07:00pm 25.6 26.4 21.7 79 2.6 N 20 30 11 16 1013.7 1013.6 0.0
21/06:30pm 25.7 26.4 21.6 78 2.7 N 20 30 11 16 1013.6 1013.5 0.0
21/06:00pm 25.9 26.2 21.6 77 2.9 N 22 32 12 17 1013.5 1013.4 0.0
21/05:30pm 26.8 27.1 21.5 72 3.5 N 22 32 12 17 1013.2 1013.1 0.0
21/05:00pm 27.2 27.3 21.2 69 4.0 N 22 30 12 16 1013.0 1012.9 0.0
21/04:30pm 27.4 27.0 21.0 68 4.2 N 24 33 13 18 1012.6 1012.5 0.0
21/04:00pm 27.7 26.9 20.8 66 4.6 N 26 33 14 18 1012.7 1012.6 0.0
21/03:30pm 28.3 27.7 20.6 63 5.1 N 24 32 13 17 1012.6 1012.5 0.0
21/03:00pm 29.1 29.2 21.1 62 5.3 N 22 32 12 17 1012.8 1012.7 0.0
21/02:30pm 28.5 28.0 20.8 63 5.1 N 24 32 13 17 1013.2 1013.1 0.0
21/02:00pm 29.9 30.1 22.1 63 5.3 N 24 35 13 19 1013.5 1013.4 0.0
21/01:30pm 28.9 29.1 20.6 61 5.5 N 20 37 11 20 1013.9 1013.8 0.0
21/01:00pm 29.2 29.2 21.7 64 5.0 N 24 35 13 19 1014.4 1014.3 0.0
21/12:30pm 28.7 28.5 21.2 64 5.0 N 24 35 13 19 1014.8 1014.7 0.0
21/12:00pm 28.8 28.6 21.3 64 5.0 N 24 33 13 18 1015.2 1015.1 0.0
21/11:30am 28.7 28.8 21.2 64 5.0 N 22 35 12 19 1015.6 1015.5 0.0
21/11:00am 28.9 29.3 20.9 62 5.3 N 20 32 11 17 1016.1 1016.0 0.0
21/10:30am 29.3 30.2 22.0 64 4.9 N 20 33 11 18 1016.2 1016.1 0.0
21/10:00am 28.2 28.5 21.5 67 4.5 N 22 28 12 15 1016.4 1016.3 0.0
21/09:30am 28.4 29.3 21.9 68 4.4 N 20 33 11 18 1016.6 1016.5 0.0
21/09:00am 27.5 27.7 21.3 69 4.1 N 22 30 12 16 1016.6 1016.5 0.0
21/08:30am 27.0 27.6 21.1 70 3.9 N 19 28 10 15 1016.9 1016.8 0.0
21/08:00am 26.2 26.6 21.0 73 3.4 N 20 30 11 16 1016.9 1016.8 0.0
21/07:30am 27.4 28.4 21.7 71 3.8 N 19 28 10 15 1016.7 1016.6 0.0
21/07:00am 25.8 27.4 21.5 77 2.9 N 15 20 8 11 1016.7 1016.6 0.0
21/06:30am 25.9 27.9 21.6 77 2.9 N 13 17 7 9 1016.5 1016.4 0.0
21/06:00am 25.2 26.6 21.1 78 2.7 N 15 20 8 11 1016.3 1016.2 0.0
21/05:30am 24.8 26.6 21.1 80 2.4 N 13 19 7 10 1015.9 1015.8 0.0
21/05:00am 24.4 26.6 21.1 82 2.2 N 11 17 6 9 1015.6 1015.5 0.0
21/04:30am 24.6 25.5 20.9 80 2.4 N 17 24 9 13 1015.4 1015.3 0.0
21/04:00am 24.8 26.3 21.3 81 2.3 N 15 20 8 11 1015.1 1015.0 0.0
21/03:30am 24.7 26.2 21.2 81 2.3 N 15 20 8 11 1014.9 1014.8 0.0
21/03:00am 24.7 25.8 21.2 81 2.3 N 17 20 9 11 1015.0 1014.9 0.0
21/02:30am 24.7 26.2 21.2 81 2.3 N 15 24 8 13 1015.0 1014.9 0.0
21/02:03am 24.9 25.7 21.4 81 2.3 N 19 26 10 14 1014.9 1014.8 0.0
21/02:00am 24.9 26.2 21.6 82 2.2 NNE 17 24 9 13 1015.0 1014.9 0.0
21/01:30am 24.9 25.9 21.8 83 2.1 NNE 19 24 10 13 1015.1 1015.0 0.0
21/01:29am 24.9 25.9 21.8 83 2.1 NNE 19 24 10 13 1015.2 1015.1 0.0
21/01:00am 24.8 26.5 21.7 83 2.1 NNE 15 20 8 11 1015.5 1015.4 0.0
21/12:30am 24.8 26.5 21.7 83 2.1 NNE 15 20 8 11 1015.9 1015.8 0.0
21/12:08am 25.0 27.2 21.9 83 2.1 NNE 13 20 7 11 1016.0 1015.9 0.0
21/12:00am 25.0 26.3 21.7 82 2.2 NNE 17 26 9 14 1016.2 1016.1 0.0
 
Date/Time
EST
Temp
°C
App
Temp
°C
Dew
Point
Rel
Hum
%
Delta-T
°C
Wind Press
QNH
hPa
Press
MSL
hPa
Rain
since 9 am
mm
Dir
 
Spd
km/h
Gust
km/h
Spd
kts
Gust
kts
20/11:30pm 24.9 26.2 21.6 82 2.2 NNE 17 24 9 13 1016.3 1016.2 0.0
20/11:00pm 25.2 26.4 21.5 80 2.4 NNE 17 22 9 12 1016.7 1016.6 0.0
20/10:30pm 25.2 27.2 21.5 80 2.5 NNE 13 19 7 10 1016.8 1016.7 0.0
20/10:00pm 25.1 26.7 21.4 80 2.4 NNE 15 20 8 11 1017.0 1016.9 0.0
20/09:30pm 25.2 26.3 21.3 79 2.6 NNE 17 26 9 14 1016.9 1016.8 0.0
20/09:00pm 25.1 26.3 21.4 80 2.4 NNE 17 24 9 13 1016.9 1016.8 0.0
20/08:30pm 25.4 27.1 21.7 80 2.5 NNE 15 22 8 12 1016.7 1016.6 0.0
20/08:00pm 25.4 26.5 21.3 78 2.7 NE 17 20 9 11 1016.5 1016.4 0.0
20/07:30pm 25.6 26.5 21.5 78 2.7 NE 19 24 10 13 1016.3 1016.2 0.0
20/07:00pm 25.8 26.9 21.2 76 3.0 NE 17 20 9 11 1015.9 1015.8 0.0
20/06:30pm 25.9 27.2 21.6 77 2.9 NNE 17 24 9 13 1015.6 1015.5 0.0
20/06:00pm 26.0 27.9 21.4 76 3.0 NNE 13 20 7 11 1015.5 1015.4 0.0
20/05:30pm 26.6 27.1 21.1 72 3.6 NNE 20 28 11 15 1015.0 1014.9 0.0
20/05:00pm 27.0 27.2 21.3 71 3.8 NE 22 33 12 18 1014.6 1014.5 0.0
20/04:30pm 27.6 27.1 20.7 66 4.6 NNE 24 35 13 19 1014.6 1014.5 0.0
20/04:00pm 27.6 26.7 19.9 63 5.0 NNE 24 32 13 17 1014.4 1014.3 0.0
20/03:30pm 28.2 28.6 20.7 63 5.0 NNE 19 26 10 14 1014.6 1014.5 0.0
20/03:00pm 27.3 27.5 20.6 67 4.4 NNE 20 28 11 15 1014.7 1014.6 0.0
20/02:30pm 27.4 27.7 20.7 67 4.4 NE 20 33 11 18 1015.0 1014.9 0.0
20/02:00pm 27.5 27.4 20.8 67 4.4 NE 22 28 12 15 1015.3 1015.2 0.0
20/01:30pm 27.7 27.7 21.0 67 4.4 NNE 22 32 12 17 1015.7 1015.6 0.0
20/01:00pm 27.5 28.6 22.0 72 3.7 N 19 28 10 15 1016.1 1016.0 0.0
20/12:30pm 28.3 28.2 20.8 63 5.0 N 22 30 12 16 1016.4 1016.3 0.0
20/12:00pm 27.8 28.4 21.1 67 4.4 N 19 26 10 14 1016.8 1016.7 0.0
20/11:30am 29.6 30.4 21.3 61 5.6 N 19 28 10 15 1017.0 1016.9 0.0
20/11:00am 28.5 29.6 21.3 65 4.8 NNE 17 26 9 14 1017.4 1017.3 0.0
20/10:30am 27.6 28.0 19.9 63 5.0 NNE 17 24 9 13 1017.9 1017.8 0.0

Other Formats:

Comma delimited format used in spreadsheet applications
http://www.bom.gov.au/fwo/IDQ60801/IDQ60801.95565.axf

JavaScript Object Notation format (JSON) in row-major order
http://www.bom.gov.au/fwo/IDQ60801/IDQ60801.95565.json